Time;durP1;ratioP1;P1;durP2;ratioP2;P2;SDS_P1;SDS_P2;PMS_P1;PMS_P2;Temp;Humidity;BMP_temperature;BMP_pressure;BME280_temperature;BME280_humidity;BME280_pressure;Samples;Min_cycle;Max_cycle;Signal;HPM_P1;HPM_P2
2022/01/28 00:00:59;;;;;;;31.83;6.28;;;;;;;7.38;64.18;103044.59;5258108;27;20851;-43
2022/01/28 00:03:33;;;;;;;22.65;6.18;;;;;;;7.35;64.16;103039.50;5260517;27;20402;-44
2022/01/28 00:06:07;;;;;;;37.47;7.72;;;;;;;7.37;64.17;103042.03;5261140;27;20411;-48
2022/01/28 00:08:40;;;;;;;24.52;6.35;;;;;;;7.39;64.10;103029.69;5262054;28;20420;-44
2022/01/28 00:11:13;;;;;;;22.02;5.82;;;;;;;7.39;64.10;103030.53;5255772;28;20427;-44
2022/01/28 00:13:52;;;;;;;20.73;5.70;;;;;;;7.37;64.10;103021.88;5260058;28;20890;-46
2022/01/28 00:16:58;;;;;;;24.15;6.78;;;;;;;7.40;64.18;103041.88;5260076;28;20761;-45
2022/01/28 00:20:09;;;;;;;24.33;5.32;;;;;;;7.40;64.20;103028.75;5251400;28;20414;-45
2022/01/28 00:37:00;;;;;;;20.98;5.40;;;;;;;7.39;64.24;103072.59;5256664;28;20416;-49
2022/01/28 00:39:34;;;;;;;22.97;5.37;;;;;;;7.38;64.23;103065.63;5253460;28;20895;-49
2022/01/28 00:42:07;;;;;;;14.40;4.43;;;;;;;7.44;64.12;103075.00;5266796;28;20411;-46
2022/01/28 00:44:40;;;;;;;14.02;4.90;;;;;;;7.45;64.30;103081.13;5259761;28;20460;-45
2022/01/28 00:47:12;;;;;;;18.55;4.65;;;;;;;7.46;64.21;103088.91;5258748;28;20426;-46
2022/01/28 00:49:45;;;;;;;20.88;5.70;;;;;;;7.44;64.15;103080.25;5266717;28;20409;-46
2022/01/28 00:52:17;;;;;;;16.15;4.95;;;;;;;7.50;64.20;103087.84;5265710;28;20405;-54
2022/01/28 00:54:51;;;;;;;18.67;5.40;;;;;;;7.43;64.49;103093.47;5264921;28;20404;-46
2022/01/28 00:57:24;;;;;;;23.70;5.20;;;;;;;7.45;64.17;103096.88;5264126;27;20452;-49
2022/01/28 00:59:56;;;;;;;18.85;4.93;;;;;;;7.52;63.99;103103.53;5262112;28;20462;-48
2022/01/28 01:02:29;;;;;;;27.63;7.07;;;;;;;7.50;64.16;103111.53;5265559;28;20456;-50
2022/01/28 01:05:01;;;;;;;19.00;5.20;;;;;;;7.53;64.07;103110.53;5263231;28;20417;-46
2022/01/28 01:07:34;;;;;;;27.70;6.70;;;;;;;7.56;64.21;103115.63;5262144;27;20424;-45
2022/01/28 01:10:10;;;;;;;21.20;5.40;;;;;;;7.57;63.74;103091.88;5262279;27;20415;-50
2022/01/28 01:12:45;;;;;;;20.92;5.45;;;;;;;7.56;63.95;103099.84;5270501;27;20440;-44
2022/01/28 01:15:21;;;;;;;14.25;4.65;;;;;;;7.53;63.84;103095.59;5265816;28;20974;-48
2022/01/28 01:18:00;;;;;;;17.42;4.85;;;;;;;7.57;64.01;103106.81;5263113;28;20499;-47
2022/01/28 01:20:50;;;;;;;21.02;5.63;;;;;;;7.57;63.92;103107.66;5258875;27;20481;-46
2022/01/28 01:23:26;;;;;;;16.20;5.07;;;;;;;7.57;63.81;103123.44;5262373;27;20411;-44
2022/01/28 01:26:07;;;;;;;20.53;5.57;;;;;;;7.58;63.77;103127.75;5262444;28;20424;-45
2022/01/28 01:28:42;;;;;;;19.88;5.40;;;;;;;7.58;63.78;103129.53;5263711;27;20440;-44
2022/01/28 01:31:18;;;;;;;27.63;6.03;;;;;;;7.56;63.80;103127.00;5260912;28;20457;-48
2022/01/28 01:33:57;;;;;;;26.85;5.70;;;;;;;7.57;63.90;103127.84;5261356;28;20416;-47
2022/01/28 01:36:29;;;;;;;24.50;5.95;;;;;;;7.54;63.77;103138.50;5263989;28;20443;-48
2022/01/28 01:39:02;;;;;;;29.92;6.18;;;;;;;7.58;63.79;103140.91;5262636;28;20770;-45
2022/01/28 01:41:41;;;;;;;22.08;5.50;;;;;;;7.60;63.59;103138.22;5268337;28;20821;-45
2022/01/28 01:44:23;;;;;;;23.05;5.07;;;;;;;7.59;63.61;103134.75;5256902;28;20473;-51
2022/01/28 01:52:01;;;;;;;28.40;5.80;;;;;;;7.61;63.53;103145.16;5262987;28;20435;-44
2022/01/28 01:53:02;;;;;;;31.48;6.70;;;;;;;7.61;63.59;103150.44;5261764;28;20416;-46
2022/01/28 01:55:35;;;;;;;31.30;6.18;;;;;;;7.41;63.48;103126.88;5263728;27;20499;-47
2022/01/28 01:58:09;;;;;;;25.60;6.53;;;;;;;7.65;63.57;103166.91;5260165;27;20937;-47
2022/01/28 02:00:41;;;;;;;34.78;6.70;;;;;;;7.68;63.34;103172.03;5257187;28;20829;-45
2022/01/28 02:03:14;;;;;;;39.30;7.22;;;;;;;7.70;63.28;103175.44;5263798;28;20436;-49
2022/01/28 02:05:46;;;;;;;26.10;6.47;;;;;;;7.69;63.35;103171.13;5262174;28;20474;-44
2022/01/28 02:08:19;;;;;;;36.03;6.13;;;;;;;7.65;63.57;103167.78;5261964;27;20398;-48
2022/01/28 02:10:56;;;;;;;28.90;6.90;;;;;;;7.65;63.34;103172.16;5265594;28;20418;-46
2022/01/28 02:13:34;;;;;;;34.08;7.28;;;;;;;7.60;63.45;103169.78;5263884;28;20836;-47
2022/01/28 02:16:09;;;;;;;22.87;5.20;;;;;;;7.53;63.45;103169.22;5260137;28;20811;-45
2022/01/28 02:18:41;;;;;;;19.52;5.13;;;;;;;7.35;63.73;103138.53;5258148;27;20390;-54
2022/01/28 02:21:17;;;;;;;25.73;6.47;;;;;;;7.54;63.45;103168.28;5261648;28;20440;-46
2022/01/28 02:23:55;;;;;;;20.67;5.88;;;;;;;7.49;63.42;103158.91;5264768;27;20418;-55
2022/01/28 02:26:29;;;;;;;18.55;5.28;;;;;;;7.49;63.43;103161.53;5262331;28;20431;-46
2022/01/28 02:29:08;;;;;;;21.20;5.43;;;;;;;7.48;63.56;103175.63;5264635;28;20408;-47
2022/01/28 02:31:41;;;;;;;23.65;6.45;;;;;;;7.46;63.54;103172.19;5258877;28;20419;-48
2022/01/28 02:34:14;;;;;;;24.15;6.35;;;;;;;7.34;63.52;103158.72;5258537;27;20390;-47
2022/01/28 02:36:48;;;;;;;29.23;6.35;;;;;;;7.42;63.46;103170.66;5262325;27;20440;-46
2022/01/28 02:39:20;;;;;;;31.40;6.70;;;;;;;7.41;63.54;103176.84;5264772;28;20436;-45
2022/01/28 02:42:00;;;;;;;27.10;5.68;;;;;;;7.38;63.48;103181.31;5265700;28;20424;-49
2022/01/28 02:44:46;;;;;;;22.00;5.28;;;;;;;7.37;63.71;103184.88;5263509;28;20459;-43
2022/01/28 02:47:30;;;;;;;22.13;4.55;;;;;;;7.35;63.69;103197.22;5258258;28;20431;-46
2022/01/28 02:50:03;;;;;;;19.65;5.22;;;;;;;7.31;63.58;103190.41;5257810;28;20410;-54
2022/01/28 02:52:44;;;;;;;17.33;4.82;;;;;;;7.30;63.65;103191.31;5259082;27;20428;-45
2022/01/28 02:55:16;;;;;;;25.80;5.70;;;;;;;7.29;63.49;103197.50;5259266;28;20438;-43
2022/01/28 02:58:03;;;;;;;24.70;5.43;;;;;;;7.23;63.40;103196.94;5268128;28;20404;-44
2022/01/28 03:00:35;;;;;;;20.10;4.95;;;;;;;7.27;63.54;103211.63;5265118;27;20776;-44
2022/01/28 03:03:08;;;;;;;20.42;5.38;;;;;;;7.28;63.49;103216.84;5257387;28;20416;-45
2022/01/28 03:05:40;;;;;;;28.60;6.60;;;;;;;7.27;63.42;103217.72;5262416;28;20424;-56
2022/01/28 03:08:14;;;;;;;24.83;6.55;;;;;;;7.26;63.54;103213.41;5263365;28;20488;-50
2022/01/28 03:11:04;;;;;;;21.45;5.60;;;;;;;7.25;63.55;103227.50;5267181;28;20415;-55
2022/01/28 03:13:58;;;;;;;30.65;7.32;;;;;;;7.23;63.44;103231.94;5265044;28;20428;-45
2022/01/28 03:16:33;;;;;;;18.27;5.03;;;;;;;7.19;63.42;103227.75;5257732;28;20414;-45
2022/01/28 03:19:16;;;;;;;25.05;5.97;;;;;;;7.20;63.48;103213.69;5262842;27;20417;-46
2022/01/28 03:21:55;;;;;;;23.17;5.25;;;;;;;7.18;63.43;103220.78;5262609;28;20397;-45
2022/01/28 03:24:29;;;;;;;23.30;4.80;;;;;;;7.16;63.46;103227.91;5264330;28;20469;-45
2022/01/28 03:27:07;;;;;;;27.10;5.07;;;;;;;7.13;63.48;103225.41;5263332;27;23444;-45
2022/01/28 03:29:39;;;;;;;30.55;6.53;;;;;;;7.13;63.33;103222.78;5258421;28;20423;-48
2022/01/28 03:32:12;;;;;;;31.03;6.00;;;;;;;7.10;63.39;103215.03;5262010;28;20566;-44
2022/01/28 03:34:44;;;;;;;30.60;5.35;;;;;;;7.06;63.43;103216.94;5263759;27;20481;-45
2022/01/28 03:37:16;;;;;;;24.13;5.20;;;;;;;7.07;63.30;103236.19;5265409;28;20511;-46
2022/01/28 03:39:50;;;;;;;27.45;6.25;;;;;;;7.05;63.31;103230.16;5260063;28;20499;-44
2022/01/28 03:42:23;;;;;;;35.50;5.88;;;;;;;7.05;63.33;103235.41;5257408;28;20404;-46
2022/01/28 03:44:55;;;;;;;21.27;5.38;;;;;;;7.00;63.53;103216.34;5263465;28;20513;-45
2022/01/28 03:47:28;;;;;;;24.58;5.65;;;;;;;7.04;63.37;103228.44;5262573;27;20414;-45
2022/01/28 03:50:00;;;;;;;19.60;5.18;;;;;;;7.08;63.31;103219.50;5235847;28;20471;-45
2022/01/28 03:52:33;;;;;;;31.23;5.70;;;;;;;6.69;63.38;103146.81;5260951;28;20542;-51
2022/01/28 03:55:08;;;;;;;31.00;5.93;;;;;;;7.15;63.22;103220.91;5258642;28;20433;-55
2022/01/28 03:57:41;;;;;;;23.08;5.22;;;;;;;7.15;63.39;103223.53;5261705;28;20837;-48
2022/01/28 04:00:15;;;;;;;18.00;5.32;;;;;;;7.19;63.24;103233.03;5259274;28;20404;-48
2022/01/28 04:02:50;;;;;;;32.30;5.37;;;;;;;7.18;63.17;103236.56;5257847;27;20574;-49
2022/01/28 04:06:07;;;;;;;25.92;4.85;;;;;;;7.19;63.29;103248.78;5255664;27;20459;-44
2022/01/28 04:11:29;;;;;;;22.33;6.00;;;;;;;7.23;63.19;103260.88;5261504;28;20424;-44
2022/01/28 04:14:11;;;;;;;29.15;5.80;;;;;;;7.27;63.21;103257.16;5264855;27;20461;-46
2022/01/28 04:19:33;;;;;;;20.67;4.95;;;;;;;7.27;63.12;103262.41;5258225;28;20388;-44
2022/01/28 04:22:06;;;;;;;25.67;6.00;;;;;;;7.29;63.18;103268.47;5262196;28;20414;-44
2022/01/28 04:24:38;;;;;;;21.20;5.60;;;;;;;7.36;63.23;103267.25;5263574;28;20434;-47
2022/01/28 04:27:13;;;;;;;20.10;5.07;;;;;;;7.39;63.13;103267.13;5262550;28;20493;-48
2022/01/28 04:29:46;;;;;;;21.80;5.20;;;;;;;7.42;62.95;103262.66;5259774;28;20408;-45
2022/01/28 04:32:19;;;;;;;21.77;5.53;;;;;;;7.39;62.98;103264.50;5261546;28;20472;-45
2022/01/28 04:34:53;;;;;;;22.27;5.03;;;;;;;7.45;62.95;103271.25;5267520;27;20444;-46
2022/01/28 04:37:31;;;;;;;21.40;5.00;;;;;;;7.46;63.01;103278.22;5260259;27;20399;-45
2022/01/28 04:40:12;;;;;;;30.42;4.63;;;;;;;7.47;63.15;103279.09;5269121;28;20795;-45
2022/01/28 04:43:04;;;;;;;21.42;4.93;;;;;;;7.42;62.85;103270.56;5264922;28;20754;-46
2022/01/28 04:45:44;;;;;;;25.63;6.27;;;;;;;7.35;62.96;103270.81;5263623;27;20411;-45
2022/01/28 04:48:25;;;;;;;33.15;5.63;;;;;;;7.28;63.06;103272.03;5258931;28;20515;-56
2022/01/28 04:51:11;;;;;;;20.90;5.10;;;;;;;7.27;62.83;103278.19;5269395;28;20797;-46
2022/01/28 04:54:01;;;;;;;24.88;6.15;;;;;;;7.27;62.94;103283.44;5263113;27;20423;-54
2022/01/28 04:56:51;;;;;;;29.33;5.93;;;;;;;7.23;62.99;103287.16;5264370;27;20404;-45
2022/01/28 04:59:38;;;;;;;29.45;5.28;;;;;;;7.21;62.81;103293.38;5264301;28;20406;-45
2022/01/28 05:02:27;;;;;;;23.02;4.78;;;;;;;7.17;62.82;103292.66;5263052;28;20402;-49
2022/01/28 05:16:45;;;;;;;23.75;4.97;;;;;;;6.83;62.77;103299.38;5252928;27;20410;-52
2022/01/28 05:25:46;;;;;;;28.60;5.20;;;;;;;7.01;62.91;103333.69;5208627;28;20459;-49
2022/01/28 05:28:22;;;;;;;20.73;5.03;;;;;;;7.10;62.92;103312.25;5255395;27;20498;-52
2022/01/28 05:30:55;;;;;;;22.52;5.10;;;;;;;7.16;62.71;103319.88;5242411;28;20819;-47
2022/01/28 05:33:29;;;;;;;20.10;5.00;;;;;;;7.20;62.78;103316.19;5264689;28;20412;-50
2022/01/28 05:36:01;;;;;;;38.83;6.75;;;;;;;7.22;62.82;103321.41;5261083;28;20519;-47
2022/01/28 05:38:34;;;;;;;22.70;6.25;;;;;;;7.23;62.96;103323.94;5260052;28;20412;-47
2022/01/28 05:41:09;;;;;;;26.42;5.70;;;;;;;7.20;62.71;103318.81;5258990;27;20405;-46
2022/01/28 05:43:42;;;;;;;25.42;5.60;;;;;;;6.76;62.96;103276.94;5262575;27;20432;-48
2022/01/28 05:46:14;;;;;;;26.92;6.60;;;;;;;7.20;62.75;103334.59;5265077;28;20510;-48
2022/01/28 05:48:48;;;;;;;25.83;5.80;;;;;;;7.15;62.83;103326.03;5269566;28;20997;-46
2022/01/28 05:51:21;;;;;;;32.15;5.47;;;;;;;7.19;62.89;103332.03;5267304;27;21503;-50
2022/01/28 05:53:57;;;;;;;27.08;5.72;;;;;;;7.21;62.81;103333.66;5270251;27;20507;-50
2022/01/28 05:56:31;;;;;;;26.55;5.43;;;;;;;7.23;62.99;103337.09;5266249;28;20639;-48
2022/01/28 05:59:04;;;;;;;26.05;4.95;;;;;;;7.25;62.90;103342.28;5261316;27;20393;-48
2022/01/28 06:01:37;;;;;;;26.15;5.65;;;;;;;7.24;62.84;103345.81;5266513;28;20447;-49
2022/01/28 06:04:11;;;;;;;31.10;5.82;;;;;;;7.29;62.84;103355.22;5265561;28;20412;-50
2022/01/28 06:06:43;;;;;;;21.95;5.00;;;;;;;7.27;62.86;103351.78;5261106;27;20548;-47
2022/01/28 06:09:16;;;;;;;22.50;5.05;;;;;;;7.35;62.94;103365.47;5265792;27;20940;-47
2022/01/28 06:11:48;;;;;;;31.30;6.35;;;;;;;7.38;62.66;103360.06;5263062;28;20861;-47
2022/01/28 06:14:21;;;;;;;25.23;5.95;;;;;;;7.41;62.66;103366.13;5268070;28;20854;-47
2022/01/28 06:16:53;;;;;;;31.75;5.85;;;;;;;7.39;62.78;103360.91;5270008;28;20890;-49
2022/01/28 06:19:27;;;;;;;24.98;4.75;;;;;;;7.42;62.65;103376.56;5269751;28;20431;-50
2022/01/28 06:21:59;;;;;;;28.63;5.70;;;;;;;7.36;62.60;103364.53;5269027;28;20508;-48
2022/01/28 06:24:32;;;;;;;19.75;5.47;;;;;;;7.44;62.62;103394.91;5260972;27;20817;-49
2022/01/28 06:27:05;;;;;;;24.88;5.55;;;;;;;7.47;62.62;103402.66;5259117;28;20524;-47
2022/01/28 06:29:37;;;;;;;21.75;4.68;;;;;;;7.46;62.77;103398.31;5267896;27;20431;-50
2022/01/28 06:32:11;;;;;;;17.85;4.28;;;;;;;7.34;62.69;103399.69;5266097;28;20400;-50
2022/01/28 06:34:44;;;;;;;24.88;5.68;;;;;;;7.42;62.44;103402.00;5264636;28;20401;-46
2022/01/28 06:37:17;;;;;;;22.85;5.18;;;;;;;7.45;62.85;103412.41;5262443;28;20433;-44
2022/01/28 06:39:49;;;;;;;25.80;5.47;;;;;;;7.45;62.59;103417.66;5264140;28;20422;-44
2022/01/28 06:42:22;;;;;;;31.20;6.15;;;;;;;7.46;62.66;103422.81;5257802;28;20505;-47
2022/01/28 06:44:54;;;;;;;32.08;6.50;;;;;;;7.46;62.69;103414.09;5264161;28;20411;-47
2022/01/28 06:47:27;;;;;;;24.27;5.75;;;;;;;7.45;62.40;103412.41;5262874;27;20449;-47
2022/01/28 06:50:02;;;;;;;21.95;4.95;;;;;;;6.91;62.29;103365.59;5268441;27;20444;-45
2022/01/28 06:52:35;;;;;;;24.25;5.97;;;;;;;7.26;62.45;103397.41;5267580;28;20725;-47
2022/01/28 06:55:09;;;;;;;24.00;5.32;;;;;;;7.27;62.43;103401.72;5262602;28;20515;-48
2022/01/28 06:57:41;;;;;;;29.57;5.67;;;;;;;7.20;62.64;103392.41;5266558;27;20416;-45
2022/01/28 07:00:15;;;;;;;29.55;5.95;;;;;;;7.20;62.72;103397.66;5265179;28;20484;-46
2022/01/28 07:02:49;;;;;;;24.77;5.93;;;;;;;7.21;62.51;103404.63;5262894;27;20431;-44
2022/01/28 07:05:23;;;;;;;23.77;5.13;;;;;;;7.17;62.59;103408.31;5264558;27;20419;-44
2022/01/28 07:07:56;;;;;;;25.25;5.40;;;;;;;7.04;62.36;103397.47;5263958;28;20495;-47
2022/01/28 07:10:30;;;;;;;21.15;4.95;;;;;;;7.11;62.50;103409.41;5250064;28;21368;-45
2022/01/28 07:13:03;;;;;;;31.67;5.13;;;;;;;6.98;62.41;103389.84;5264079;27;20418;-47
2022/01/28 07:15:35;;;;;;;21.00;5.35;;;;;;;7.06;62.55;103414.03;5265367;28;20400;-45
2022/01/28 07:18:08;;;;;;;29.85;7.07;;;;;;;6.98;62.52;103407.38;5265172;27;20460;-45
2022/01/28 07:20:43;;;;;;;22.50;4.55;;;;;;;6.97;62.56;103426.66;5261853;28;20406;-46
2022/01/28 07:23:15;;;;;;;32.22;6.57;;;;;;;6.92;62.63;103422.47;5253039;28;20404;-44
2022/01/28 07:25:48;;;;;;;23.42;5.13;;;;;;;6.90;62.70;103429.53;5259542;28;20472;-44
2022/01/28 07:28:22;;;;;;;19.60;5.10;;;;;;;6.87;62.56;103434.91;5262259;27;20572;-44
2022/01/28 07:30:55;;;;;;;26.08;5.95;;;;;;;6.65;62.50;103400.78;5266692;28;20407;-51
2022/01/28 07:33:28;;;;;;;22.13;6.15;;;;;;;6.83;62.64;103429.88;5267341;28;20918;-49
2022/01/28 07:36:02;;;;;;;29.02;6.05;;;;;;;6.50;62.50;103384.78;5264501;27;20440;-49
2022/01/28 07:38:34;;;;;;;32.88;6.40;;;;;;;6.83;62.46;103445.63;5265532;27;20486;-48
2022/01/28 07:41:08;;;;;;;25.93;6.47;;;;;;;6.84;62.27;103442.06;5262306;28;20409;-47
2022/01/28 07:43:42;;;;;;;23.10;5.67;;;;;;;6.87;62.35;103448.06;5266878;28;20420;-43
2022/01/28 07:46:14;;;;;;;39.90;7.10;;;;;;;6.89;62.22;103446.22;5256858;27;20885;-45
2022/01/28 07:48:47;;;;;;;28.63;6.10;;;;;;;6.89;62.49;103459.38;5264670;28;20416;-45
2022/01/28 07:51:21;;;;;;;34.08;5.85;;;;;;;6.88;62.50;103465.53;5268159;28;20438;-44
2022/01/28 07:53:54;;;;;;;37.37;5.97;;;;;;;6.61;62.42;103416.75;5270291;27;20449;-44
2022/01/28 07:56:26;;;;;;;25.75;6.78;;;;;;;6.90;62.38;103462.84;5266692;28;20538;-44
2022/01/28 07:58:59;;;;;;;32.50;6.07;;;;;;;6.89;62.46;103477.75;5267386;27;20452;-44
2022/01/28 08:01:31;;;;;;;29.40;5.95;;;;;;;6.91;62.40;103485.59;5265387;28;20514;-44
2022/01/28 08:04:04;;;;;;;29.23;6.18;;;;;;;6.92;62.48;103480.25;5259874;28;20410;-45
2022/01/28 08:06:38;;;;;;;31.13;6.85;;;;;;;6.89;62.28;103477.75;5259426;28;20466;-45
2022/01/28 08:09:10;;;;;;;32.88;6.53;;;;;;;6.86;62.36;103485.75;5258629;28;20503;-48
2022/01/28 08:11:43;;;;;;;26.60;5.63;;;;;;;6.87;62.41;103490.09;5260420;28;21030;-47
2022/01/28 08:14:15;;;;;;;27.35;5.85;;;;;;;6.86;62.36;103492.78;5260952;27;20408;-46
2022/01/28 08:16:48;;;;;;;28.70;7.93;;;;;;;6.86;62.35;103490.16;5256936;28;20446;-46
2022/01/28 08:19:20;;;;;;;34.80;10.48;;;;;;;6.84;62.51;103505.97;5257800;28;20402;-44
2022/01/28 08:21:54;;;;;;;33.65;8.07;;;;;;;6.87;62.48;103511.09;5262158;28;20902;-48
2022/01/28 08:24:27;;;;;;;23.25;6.90;;;;;;;6.86;62.38;103498.03;5254807;28;20422;-46
2022/01/28 08:26:59;;;;;;;28.75;7.15;;;;;;;6.98;62.25;103512.47;5263292;28;20415;-45
2022/01/28 08:29:31;;;;;;;24.80;6.13;;;;;;;7.03;61.94;103523.63;5255740;28;20425;-46
2022/01/28 08:32:05;;;;;;;25.58;6.57;;;;;;;7.07;62.34;103520.00;5261676;28;20413;-51
2022/01/28 08:34:37;;;;;;;33.72;8.07;;;;;;;7.26;62.32;103520.94;5257747;28;21140;-49
2022/01/28 08:37:11;;;;;;;28.13;9.60;;;;;;;7.57;61.86;103511.78;5260740;28;20495;-47
2022/01/28 08:39:43;;;;;;;38.42;10.60;;;;;;;7.97;61.36;103512.72;5253154;28;20730;-50
2022/01/28 08:42:16;;;;;;;57.30;24.95;;;;;;;7.72;60.84;103445.38;5261701;27;20509;-45
2022/01/28 08:44:49;;;;;;;31.83;10.95;;;;;;;8.50;60.95;103510.34;5260097;27;21181;-51
2022/01/28 08:47:21;;;;;;;25.52;6.85;;;;;;;8.69;60.70;103512.97;5256177;28;20493;-48
2022/01/28 08:49:54;;;;;;;32.80;6.85;;;;;;;8.76;60.80;103517.03;5259133;28;20418;-44
2022/01/28 08:52:28;;;;;;;26.15;5.32;;;;;;;8.80;60.82;103517.75;5261253;27;20499;-46
2022/01/28 08:55:00;;;;;;;26.17;6.25;;;;;;;8.82;60.99;103522.94;5252829;28;20410;-44
2022/01/28 08:57:33;;;;;;;31.83;6.55;;;;;;;8.83;61.15;103524.66;5259400;27;22533;-47
2022/01/28 09:00:07;;;;;;;26.17;5.25;;;;;;;8.83;61.20;103517.59;5255424;27;20394;-46
2022/01/28 09:02:41;;;;;;;21.17;5.55;;;;;;;8.92;61.37;103521.56;5263039;28;20416;-46
2022/01/28 09:05:13;;;;;;;26.87;6.27;;;;;;;9.03;61.41;103528.97;5257041;28;20967;-47
2022/01/28 09:07:48;;;;;;;28.50;6.53;;;;;;;9.08;61.47;103537.50;5263083;27;20424;-48
2022/01/28 09:10:25;;;;;;;31.70;6.05;;;;;;;9.11;61.34;103535.59;5266805;28;20531;-48
2022/01/28 09:13:21;;;;;;;24.08;5.38;;;;;;;9.13;61.42;103536.34;5267323;27;20416;-47
2022/01/28 09:15:56;;;;;;;24.95;5.50;;;;;;;9.14;61.30;103547.78;5257712;28;20806;-50
2022/01/28 09:18:28;;;;;;;20.90;4.47;;;;;;;9.13;61.33;103546.88;5265994;27;20432;-52
2022/01/28 09:21:01;;;;;;;27.88;5.35;;;;;;;8.92;61.28;103517.16;5262186;28;20481;-46
2022/01/28 09:23:34;;;;;;;26.67;5.55;;;;;;;9.19;61.23;103567.69;5263131;27;20432;-44
2022/01/28 09:26:07;;;;;;;22.20;5.68;;;;;;;9.23;61.28;103561.34;5265314;28;20439;-45
2022/01/28 09:28:40;;;;;;;19.92;5.38;;;;;;;9.30;61.13;103563.69;5262159;28;20496;-50
2022/01/28 09:31:12;;;;;;;27.20;6.40;;;;;;;9.35;61.02;103562.56;5262759;28;20465;-47
2022/01/28 09:33:45;;;;;;;29.52;5.97;;;;;;;9.02;61.06;103506.19;5259846;28;20414;-45
2022/01/28 09:36:17;;;;;;;26.30;5.10;;;;;;;9.43;60.80;103572.72;5257542;28;20426;-47
2022/01/28 09:38:51;;;;;;;18.10;5.47;;;;;;;9.51;60.98;103561.75;5260106;28;20536;-46
2022/01/28 09:41:24;;;;;;;24.20;5.30;;;;;;;9.55;60.83;103558.91;5257562;28;20419;-44
2022/01/28 09:44:00;;;;;;;27.40;5.53;;;;;;;9.54;60.83;103551.06;5260375;27;20591;-43
2022/01/28 09:46:34;;;;;;;20.17;5.43;;;;;;;9.45;61.02;103528.66;5262756;28;20416;-46
2022/01/28 09:49:07;;;;;;;25.67;4.95;;;;;;;9.67;60.75;103560.09;5264547;27;20814;-46
2022/01/28 09:51:39;;;;;;;22.38;5.55;;;;;;;9.70;60.82;103558.16;5266683;27;20435;-49
2022/01/28 09:54:13;;;;;;;24.98;5.20;;;;;;;9.55;60.72;103535.16;5260751;27;20414;-50
2022/01/28 09:56:48;;;;;;;26.40;5.20;;;;;;;9.75;60.69;103563.19;5259269;28;20929;-47
2022/01/28 09:59:21;;;;;;;23.92;4.68;;;;;;;9.76;60.71;103566.69;5263627;27;20416;-44
2022/01/28 10:01:56;;;;;;;21.97;4.27;;;;;;;9.82;60.60;103584.88;5258074;28;20511;-48
2022/01/28 10:04:29;;;;;;;21.33;4.78;;;;;;;9.77;60.48;103578.94;5259289;28;20405;-47
2022/01/28 10:07:11;;;;;;;21.73;5.32;;;;;;;9.86;60.45;103583.75;5263929;28;20843;-44
2022/01/28 10:09:57;;;;;;;24.13;4.63;;;;;;;9.91;60.53;103584.41;5257403;28;20542;-47
2022/01/28 10:12:36;;;;;;;22.00;4.82;;;;;;;9.87;60.47;103569.63;5260907;28;20428;-49
2022/01/28 10:15:27;;;;;;;25.92;5.97;;;;;;;9.97;60.43;103581.41;5259612;28;20407;-47
2022/01/28 10:18:00;;;;;;;20.40;5.45;;;;;;;10.03;60.33;103581.09;5257632;28;20918;-44
2022/01/28 10:20:34;;;;;;;22.58;4.72;;;;;;;10.06;60.39;103575.66;5263083;28;20406;-45
2022/01/28 10:23:07;;;;;;;22.60;5.07;;;;;;;10.09;60.26;103580.78;5264394;28;20978;-47
2022/01/28 10:25:42;;;;;;;20.15;4.80;;;;;;;10.21;59.85;103591.66;5259136;28;20457;-44
2022/01/28 10:28:15;;;;;;;22.75;4.22;;;;;;;10.24;60.07;103578.28;5257856;28;20790;-47
2022/01/28 10:30:47;;;;;;;21.55;4.80;;;;;;;10.42;59.92;103576.50;5259898;28;20442;-44
2022/01/28 10:33:23;;;;;;;18.92;4.25;;;;;;;10.40;59.83;103563.34;5261935;28;20416;-46
2022/01/28 10:35:57;;;;;;;21.67;4.70;;;;;;;10.34;59.80;103527.59;5269186;28;20409;-45
2022/01/28 10:38:34;;;;;;;29.38;4.93;;;;;;;10.66;59.77;103574.34;5261144;27;20434;-45
2022/01/28 10:41:14;;;;;;;19.58;4.50;;;;;;;10.69;59.76;103574.19;5263041;28;20503;-49
2022/01/28 10:43:50;;;;;;;17.02;3.80;;;;;;;10.74;59.52;103569.47;5262106;28;20452;-48
2022/01/28 10:46:25;;;;;;;17.37;3.77;;;;;;;10.72;59.40;103563.44;5262270;28;20510;-50
2022/01/28 10:49:01;;;;;;;18.30;4.15;;;;;;;10.74;59.35;103562.38;5257900;28;20412;-50
2022/01/28 10:51:43;;;;;;;20.08;4.25;;;;;;;10.75;59.20;103569.41;5262668;28;20984;-48
2022/01/28 10:54:20;;;;;;;18.83;4.75;;;;;;;10.74;58.91;103567.66;5259186;28;20931;-49
2022/01/28 10:56:58;;;;;;;22.23;4.70;;;;;;;10.73;58.92;103573.91;5266063;28;20767;-49
2022/01/28 10:59:33;;;;;;;18.35;4.65;;;;;;;10.71;58.63;103567.00;5246103;28;20500;-47
2022/01/28 11:02:07;;;;;;;22.15;4.38;;;;;;;10.72;58.50;103571.38;5264893;28;20889;-50
2022/01/28 11:04:40;;;;;;;15.98;3.55;;;;;;;10.72;58.48;103568.72;5259924;28;20427;-50
2022/01/28 11:07:13;;;;;;;27.95;4.78;;;;;;;10.73;58.43;103555.41;5263087;28;20532;-55
2022/01/28 11:09:46;;;;;;;17.93;5.40;;;;;;;10.68;58.26;103556.59;5255182;28;21015;-47
2022/01/28 11:12:20;;;;;;;14.40;3.63;;;;;;;10.68;58.25;103556.59;5261563;27;20423;-47
2022/01/28 11:14:52;;;;;;;20.98;4.47;;;;;;;10.59;58.01;103529.75;5263028;28;20913;-48
2022/01/28 11:17:25;;;;;;;20.17;3.72;;;;;;;10.57;57.92;103528.13;5260278;28;20503;-48
2022/01/28 11:19:58;;;;;;;15.73;4.07;;;;;;;10.68;57.75;103538.09;5258239;28;20429;-48
2022/01/28 11:22:47;;;;;;;15.60;3.80;;;;;;;10.58;57.79;103528.03;5266841;28;20420;-50
2022/01/28 11:25:50;;;;;;;19.63;4.00;;;;;;;10.66;57.58;103542.63;5259287;27;20442;-47
2022/01/28 11:28:40;;;;;;;16.27;3.90;;;;;;;10.67;57.51;103539.03;5236480;27;20401;-44
2022/01/28 11:31:14;;;;;;;22.40;4.32;;;;;;;10.67;57.42;103539.03;5257843;28;20892;-46
2022/01/28 11:33:50;;;;;;;25.50;4.28;;;;;;;10.70;57.14;103536.22;5260829;28;20912;-48
2022/01/28 11:36:33;;;;;;;26.35;5.90;;;;;;;10.69;57.23;103521.31;5264739;27;20429;-46
2022/01/28 11:39:20;;;;;;;15.23;4.50;;;;;;;10.74;57.08;103516.59;5263464;28;20411;-47
2022/01/28 11:42:13;;;;;;;17.87;4.70;;;;;;;10.78;56.90;103512.88;5265623;28;20589;-45
2022/01/28 11:44:55;;;;;;;16.43;4.87;;;;;;;10.82;56.77;103495.88;5255174;27;20401;-48
2022/01/28 11:47:30;;;;;;;20.93;5.40;;;;;;;10.82;56.78;103498.53;5257359;28;20506;-47
2022/01/28 11:50:08;;;;;;;16.38;5.28;;;;;;;10.85;56.66;103488.63;5263651;28;20412;-50
2022/01/28 11:52:43;;;;;;;11.97;3.30;;;;;;;10.94;56.64;103494.34;5266160;28;20556;-44
2022/01/28 11:55:37;;;;;;;18.73;3.53;;;;;;;11.01;56.60;103480.69;5264743;27;20404;-48
2022/01/28 11:58:12;;;;;;;17.00;4.00;;;;;;;11.05;56.52;103484.00;5258155;28;20785;-48
2022/01/28 12:00:49;;;;;;;11.43;3.53;;;;;;;10.42;56.32;103371.28;5255816;28;20405;-45
2022/01/28 12:03:24;;;;;;;19.63;4.03;;;;;;;11.05;56.25;103471.63;5261196;27;20496;-46
2022/01/28 12:05:58;;;;;;;24.30;3.17;;;;;;;10.98;56.18;103480.00;5268047;28;20419;-48
2022/01/28 12:08:32;;;;;;;19.77;3.83;;;;;;;11.00;56.00;103476.34;5263239;28;20987;-45
2022/01/28 12:11:09;;;;;;;11.55;3.40;;;;;;;10.98;55.93;103470.28;5251085;28;21643;-48
2022/01/28 12:14:01;;;;;;;15.33;3.77;;;;;;;10.96;55.87;103466.88;5261158;28;20400;-45
2022/01/28 12:16:40;;;;;;;22.10;3.60;;;;;;;10.74;55.35;103424.09;5269695;28;24628;-45
2022/01/28 12:19:31;;;;;;;14.65;3.80;;;;;;;10.98;55.52;103467.63;5263744;27;20427;-48
2022/01/28 12:22:06;;;;;;;14.18;3.25;;;;;;;10.98;55.50;103457.06;5268479;28;20397;-46
2022/01/28 12:24:39;;;;;;;20.75;3.78;;;;;;;10.98;55.51;103466.78;5271422;28;20501;-46
2022/01/28 12:27:13;;;;;;;11.48;3.42;;;;;;;11.03;55.29;103457.66;5265626;27;20837;-45
2022/01/28 12:29:50;;;;;;;11.98;3.58;;;;;;;10.99;55.13;103445.53;5265784;28;20879;-44
2022/01/28 12:32:25;;;;;;;15.77;4.03;;;;;;;11.10;54.98;103444.91;5269710;28;20412;-48
2022/01/28 12:34:58;;;;;;;16.43;3.10;;;;;;;11.07;55.10;103437.16;5265028;27;20405;-45
2022/01/28 12:37:37;;;;;;;9.38;2.70;;;;;;;11.05;55.28;103439.88;5269164;28;20895;-45
2022/01/28 12:40:24;;;;;;;16.87;4.03;;;;;;;11.08;54.85;103434.41;5269511;28;20415;-47
2022/01/28 12:42:56;;;;;;;15.50;3.30;;;;;;;11.06;54.93;103435.47;5270888;28;20480;-44
2022/01/28 12:45:29;;;;;;;16.33;3.00;;;;;;;11.10;54.69;103444.91;5271668;27;20908;-48